createdAt,value
2022-08-07T00:00:40.138Z,61.11
2022-08-07T00:02:44.547Z,61.47
2022-08-07T00:04:47.380Z,60.98
2022-08-07T00:06:52.340Z,61.17
2022-08-07T00:08:55.159Z,61.86
2022-08-07T00:10:58.476Z,61.87
2022-08-07T00:13:23.480Z,62.35
2022-08-07T00:15:26.244Z,62.28
2022-08-07T00:17:40.978Z,62.43
2022-08-07T00:20:02.517Z,62.34
2022-08-07T00:22:06.932Z,61.80
2022-08-07T00:24:10.491Z,61.39
2022-08-07T00:26:48.608Z,61.08
2022-08-07T00:28:36.040Z,60.64
2022-08-07T00:30:48.631Z,60.46
2022-08-07T00:32:51.931Z,60.46
2022-08-07T00:34:54.443Z,60.58
2022-08-07T00:36:58.097Z,61.14
2022-08-07T00:39:01.923Z,61.21
2022-08-07T00:41:05.810Z,61.37
2022-08-07T00:44:00.388Z,61.84
2022-08-07T00:45:36.682Z,62.03
2022-08-07T00:48:08.783Z,61.62
2022-08-07T00:50:20.038Z,61.38
2022-08-07T00:52:25.541Z,61.39
2022-08-07T00:54:28.413Z,61.52
2022-08-07T00:56:33.861Z,62.06
2022-08-07T00:58:36.594Z,63.08
2022-08-07T01:00:53.881Z,63.53
2022-08-07T01:02:56.973Z,64.04
2022-08-07T01:05:00.878Z,64.54
2022-08-07T01:07:06.210Z,64.74
2022-08-07T01:09:10.966Z,64.73
2022-08-07T01:12:10.211Z,64.77
2022-08-07T01:13:56.424Z,65.25
2022-08-07T01:16:05.362Z,65.25
2022-08-07T01:18:09.641Z,65.38
2022-08-07T01:20:16.984Z,65.43
2022-08-07T01:22:22.784Z,65.57
2022-08-07T01:24:32.660Z,65.55
2022-08-07T01:26:36.127Z,65.57
2022-08-07T01:28:46.031Z,65.35
2022-08-07T01:30:51.368Z,65.32
2022-08-07T01:32:54.988Z,65.08
2022-08-07T01:34:58.113Z,64.45
2022-08-07T01:37:01.885Z,63.64
2022-08-07T01:39:09.462Z,63.33
2022-08-07T01:41:13.662Z,62.93
2022-08-07T01:43:34.656Z,62.64
2022-08-07T01:45:42.321Z,61.50
2022-08-07T01:48:20.503Z,61.87
2022-08-07T01:50:12.180Z,61.35
2022-08-07T01:52:15.380Z,61.69
2022-08-07T01:54:32.664Z,61.52
2022-08-07T01:56:52.194Z,61.11
2022-08-07T01:59:01.170Z,61.27
2022-08-07T02:01:59.014Z,60.64
2022-08-07T02:03:48.868Z,60.94
2022-08-07T02:05:59.905Z,61.00
2022-08-07T02:08:09.539Z,60.81
2022-08-07T02:10:18.948Z,60.56
2022-08-07T02:12:29.237Z,60.57
2022-08-07T02:14:40.830Z,60.50
2022-08-07T02:16:45.631Z,60.25
2022-08-07T02:18:51.173Z,60.27
2022-08-07T02:20:57.491Z,60.23
2022-08-07T02:23:05.406Z,60.25
2022-08-07T02:25:17.118Z,60.24
2022-08-07T02:27:23.092Z,59.86
2022-08-07T02:29:26.331Z,59.48
2022-08-07T02:31:32.718Z,58.86
2022-08-07T02:33:57.115Z,58.78
2022-08-07T02:36:26.960Z,58.87
2022-08-07T02:38:31.523Z,58.57
2022-08-07T02:40:38.537Z,58.58
2022-08-07T02:42:43.007Z,58.58
2022-08-07T02:44:48.890Z,58.34
2022-08-07T02:46:54.623Z,58.40
2022-08-07T02:48:57.758Z,58.28
2022-08-07T02:51:06.937Z,58.68
2022-08-07T02:53:23.285Z,59.66
2022-08-07T02:56:02.407Z,59.76
2022-08-07T02:58:03.137Z,60.26
2022-08-07T03:00:11.241Z,60.54
2022-08-07T03:02:15.234Z,60.01
2022-08-07T03:04:19.303Z,60.53
2022-08-07T03:06:25.877Z,61.28
2022-08-07T03:08:35.823Z,64.56
2022-08-07T03:10:41.124Z,65.33
2022-08-07T03:12:50.676Z,65.45
2022-08-07T03:14:56.461Z,66.29
2022-08-07T03:16:59.651Z,66.48
2022-08-07T03:19:08.386Z,66.62
2022-08-07T03:21:12.099Z,66.91
2022-08-07T03:23:22.067Z,66.82
2022-08-07T03:25:41.759Z,66.30
2022-08-07T03:28:37.012Z,65.44
2022-08-07T03:30:30.061Z,62.99
2022-08-07T03:32:48.891Z,61.59
2022-08-07T03:35:17.043Z,61.13
2022-08-07T03:37:27.732Z,58.49
2022-08-07T03:39:46.128Z,59.51
2022-08-07T03:41:56.062Z,58.00
2022-08-07T03:44:04.066Z,57.39
2022-08-07T03:46:10.383Z,57.98
2022-08-07T03:48:21.079Z,58.86
2022-08-07T03:50:25.409Z,58.71
2022-08-07T03:52:38.466Z,58.85
2022-08-07T03:54:54.498Z,57.85
2022-08-07T03:57:07.009Z,58.86
2022-08-07T03:59:13.706Z,59.50
2022-08-07T04:01:17.552Z,59.96
2022-08-07T04:03:21.354Z,61.17
2022-08-07T04:05:39.816Z,60.13
2022-08-07T04:07:48.790Z,60.55
2022-08-07T04:09:52.365Z,61.46
2022-08-07T04:12:25.501Z,62.17
2022-08-07T04:14:37.102Z,62.54
2022-08-07T04:16:43.051Z,62.96
2022-08-07T04:19:04.102Z,61.43
2022-08-07T04:21:16.425Z,60.79
2022-08-07T04:23:20.524Z,61.10
2022-08-07T04:25:24.116Z,60.55
2022-08-07T04:27:35.530Z,60.21
2022-08-07T04:29:48.739Z,59.46
2022-08-07T04:32:03.302Z,59.33
2022-08-07T04:34:16.695Z,59.74
2022-08-07T04:36:26.011Z,58.83
2022-08-07T04:38:29.065Z,59.76
2022-08-07T04:40:32.294Z,57.50
2022-08-07T04:42:35.093Z,57.82
2022-08-07T04:45:02.546Z,58.75
2022-08-07T04:47:08.340Z,59.04
2022-08-07T04:49:27.409Z,57.23
2022-08-07T04:51:46.249Z,57.52
2022-08-07T04:54:01.435Z,56.60
2022-08-07T04:58:09.901Z,55.11
2022-08-07T05:01:39.157Z,55.77
2022-08-07T05:04:07.809Z,56.57
2022-08-07T05:07:20.303Z,55.02
2022-08-07T05:10:04.549Z,53.08
2022-08-07T05:12:10.978Z,54.53
2022-08-07T05:14:54.986Z,55.01
2022-08-07T05:17:05.958Z,54.85
2022-08-07T05:19:19.709Z,54.98
2022-08-07T05:21:59.544Z,55.22
2022-08-07T05:24:03.601Z,54.59
2022-08-07T05:26:18.870Z,56.01
2022-08-07T05:28:28.125Z,55.70
2022-08-07T05:30:32.961Z,55.68
2022-08-07T05:32:38.894Z,54.27
2022-08-07T05:34:43.100Z,54.42
2022-08-07T05:36:52.663Z,55.43
2022-08-07T05:39:01.170Z,53.75
2022-08-07T05:41:21.940Z,54.46
2022-08-07T05:43:49.718Z,53.86
2022-08-07T05:45:49.007Z,52.50
2022-08-07T05:48:01.539Z,51.43
2022-08-07T05:50:06.042Z,52.18
2022-08-07T05:52:11.523Z,52.31
2022-08-07T05:54:30.745Z,51.08
2022-08-07T05:56:41.814Z,49.52
2022-08-07T05:58:49.165Z,50.12
2022-08-07T06:00:57.523Z,50.16
2022-08-07T06:03:03.902Z,49.98
2022-08-07T06:05:10.915Z,49.35
2022-08-07T06:07:22.905Z,49.30
2022-08-07T06:10:04.230Z,50.99
2022-08-07T06:11:49.513Z,50.36
2022-08-07T06:14:12.292Z,48.61
2022-08-07T06:16:17.041Z,49.02
2022-08-07T06:18:21.642Z,51.01
2022-08-07T06:20:49.372Z,49.22
2022-08-07T06:23:01.736Z,46.83
2022-08-07T06:25:11.313Z,46.95
2022-08-07T06:27:44.304Z,49.39
2022-08-07T06:29:47.199Z,46.72
2022-08-07T06:31:52.421Z,45.18
2022-08-07T06:33:55.915Z,45.24
2022-08-07T06:36:06.704Z,43.78
2022-08-07T06:38:20.475Z,44.22
2022-08-07T06:40:23.421Z,44.17
2022-08-07T06:42:35.318Z,44.89
2022-08-07T06:44:40.959Z,45.15
2022-08-07T06:46:43.652Z,44.74
2022-08-07T06:48:56.614Z,43.21
2022-08-07T06:51:08.237Z,43.43
2022-08-07T06:53:49.333Z,45.66
2022-08-07T06:56:00.820Z,44.89
2022-08-07T06:58:04.339Z,44.69
2022-08-07T07:00:12.928Z,44.83
2022-08-07T07:02:49.280Z,44.84
2022-08-07T07:04:54.711Z,45.83
2022-08-07T07:07:01.053Z,46.96
2022-08-07T07:09:38.330Z,42.10
2022-08-07T07:12:08.389Z,42.28
2022-08-07T07:14:14.605Z,43.03
2022-08-07T07:16:20.708Z,44.60
2022-08-07T07:18:46.874Z,40.71
2022-08-07T07:20:56.002Z,43.20
2022-08-07T07:24:08.487Z,42.51
2022-08-07T07:26:34.515Z,41.60
2022-08-07T07:28:29.652Z,42.37
2022-08-07T07:30:40.737Z,40.92
2022-08-07T07:32:45.591Z,41.32
2022-08-07T07:34:56.102Z,39.24
2022-08-07T07:37:05.451Z,41.32
2022-08-07T07:39:26.604Z,40.13
2022-08-07T07:42:12.985Z,39.72
2022-08-07T07:44:21.661Z,40.48
2022-08-07T07:46:37.826Z,41.45
2022-08-07T07:49:00.127Z,42.07
2022-08-07T07:51:13.331Z,41.23
2022-08-07T07:53:23.095Z,42.22
2022-08-07T07:55:37.384Z,42.73
2022-08-07T07:57:53.721Z,41.53
2022-08-07T07:59:58.235Z,41.77
2022-08-07T08:02:10.221Z,39.15
2022-08-07T08:04:14.938Z,37.36
2022-08-07T08:06:19.608Z,39.83
2022-08-07T08:08:34.693Z,40.00
2022-08-07T08:10:40.063Z,37.53
2022-08-07T08:12:52.696Z,38.67
2022-08-07T08:15:06.851Z,39.37
2022-08-07T08:17:55.894Z,37.26
2022-08-07T08:20:17.915Z,38.30
2022-08-07T08:22:20.451Z,36.96
2022-08-07T08:25:11.468Z,37.47
2022-08-07T08:27:25.162Z,37.26
2022-08-07T08:29:55.724Z,38.18
2022-08-07T08:32:18.386Z,38.16
2022-08-07T08:34:26.964Z,36.32
2022-08-07T08:36:34.634Z,37.97
2022-08-07T08:38:44.534Z,36.75
2022-08-07T08:41:17.915Z,39.14
2022-08-07T08:43:42.762Z,37.83
2022-08-07T08:45:59.412Z,38.98
2022-08-07T08:48:28.366Z,38.08
2022-08-07T08:50:45.276Z,38.00
2022-08-07T08:52:53.758Z,37.62
2022-08-07T08:55:07.676Z,37.75
2022-08-07T08:57:21.934Z,36.42
2022-08-07T08:59:51.241Z,35.41
2022-08-07T09:02:00.420Z,36.19
2022-08-07T09:04:26.183Z,36.81
2022-08-07T09:07:06.421Z,35.97
2022-08-07T09:09:47.468Z,35.62
2022-08-07T09:12:31.312Z,33.64
2022-08-07T09:14:50.562Z,33.55
2022-08-07T09:17:59.689Z,35.97
2022-08-07T09:20:39.202Z,37.16
2022-08-07T09:24:32.558Z,36.94
2022-08-07T09:25:41.232Z,38.14
2022-08-07T09:28:01.290Z,33.87
2022-08-07T09:30:09.151Z,35.89
2022-08-07T09:32:17.249Z,35.88
2022-08-07T09:34:27.783Z,36.74
2022-08-07T09:36:37.250Z,34.91
2022-08-07T09:38:54.822Z,36.23
2022-08-07T09:41:22.919Z,34.10
2022-08-07T09:44:06.073Z,36.01
2022-08-07T09:47:52.544Z,35.53
2022-08-07T09:50:01.017Z,34.34
2022-08-07T09:52:15.332Z,34.81
2022-08-07T09:54:49.803Z,34.79
2022-08-07T09:57:28.002Z,34.40
2022-08-07T10:00:00.917Z,34.78
2022-08-07T10:02:13.234Z,35.18
2022-08-07T10:05:12.578Z,33.18
2022-08-07T10:07:39.694Z,33.92
2022-08-07T10:10:24.465Z,34.52
2022-08-07T10:12:52.636Z,33.73
2022-08-07T10:15:19.165Z,33.85
2022-08-07T10:18:02.660Z,34.31
2022-08-07T10:19:58.605Z,35.05
2022-08-07T10:22:36.877Z,34.10
2022-08-07T10:24:55.583Z,34.58
2022-08-07T10:27:30.278Z,34.21
2022-08-07T10:30:12.370Z,33.30
2022-08-07T10:32:41.798Z,34.62
2022-08-07T10:35:02.313Z,36.75
2022-08-07T10:38:00.281Z,34.79
2022-08-07T10:40:16.510Z,33.01
2022-08-07T10:42:36.293Z,33.09
2022-08-07T10:45:15.238Z,31.70
2022-08-07T10:48:01.246Z,31.93
2022-08-07T10:50:26.080Z,31.45
2022-08-07T10:52:34.130Z,31.51
2022-08-07T10:55:21.006Z,31.26
2022-08-07T10:57:39.402Z,31.46
2022-08-07T10:59:52.102Z,30.80
2022-08-07T11:02:12.028Z,30.34
2022-08-07T11:04:34.927Z,30.50
2022-08-07T11:07:01.786Z,31.18
2022-08-07T11:10:10.061Z,31.90
2022-08-07T11:12:32.189Z,31.61
2022-08-07T11:15:00.135Z,31.62
2022-08-07T11:17:45.600Z,32.87
2022-08-07T11:19:52.065Z,30.96
2022-08-07T11:21:58.896Z,31.03
2022-08-07T11:24:11.812Z,31.23
2022-08-07T11:26:48.269Z,31.71
2022-08-07T11:29:12.941Z,31.33
2022-08-07T11:31:41.369Z,31.75
2022-08-07T11:34:29.042Z,30.93
2022-08-07T11:36:34.649Z,31.36
2022-08-07T11:39:06.932Z,31.42
2022-08-07T11:41:59.925Z,31.30
2022-08-07T11:44:14.873Z,31.00
2022-08-07T11:46:48.805Z,30.81
2022-08-07T11:49:51.518Z,30.64
2022-08-07T11:51:44.915Z,30.77
2022-08-07T11:54:01.371Z,30.77
2022-08-07T11:56:27.665Z,31.48
2022-08-07T11:58:33.216Z,30.95
2022-08-07T12:01:02.266Z,30.08
2022-08-07T12:03:44.304Z,29.84
2022-08-07T12:06:38.955Z,28.59
2022-08-07T12:08:56.194Z,30.15
2022-08-07T12:11:20.206Z,29.82
2022-08-07T12:13:35.547Z,28.58
2022-08-07T12:16:07.056Z,27.80
2022-08-07T12:18:29.729Z,26.63
2022-08-07T12:20:46.386Z,26.20
2022-08-07T12:23:08.969Z,27.31
2022-08-07T12:26:05.585Z,26.64
2022-08-07T12:28:09.448Z,24.98
2022-08-07T12:30:13.973Z,24.66
2022-08-07T12:32:25.297Z,24.63
2022-08-07T12:34:31.947Z,27.07
2022-08-07T12:36:36.848Z,24.75
2022-08-07T12:38:42.694Z,24.26
2022-08-07T12:40:50.011Z,25.84
2022-08-07T12:42:57.234Z,25.66
2022-08-07T12:45:07.508Z,23.55
2022-08-07T12:47:37.810Z,22.94
2022-08-07T12:50:38.218Z,23.83
2022-08-07T12:52:52.333Z,24.84
2022-08-07T12:55:09.325Z,26.84
2022-08-07T12:57:19.551Z,25.32
2022-08-07T12:59:54.473Z,25.09
2022-08-07T13:02:17.173Z,24.22
2022-08-07T13:04:34.901Z,24.58
2022-08-07T13:07:09.281Z,25.66
2022-08-07T13:10:29.361Z,24.58
2022-08-07T13:12:33.098Z,22.54
2022-08-07T13:14:57.582Z,22.42
2022-08-07T13:17:10.040Z,22.99
2022-08-07T13:19:46.086Z,23.90
2022-08-07T13:22:27.686Z,21.81
2022-08-07T13:25:08.912Z,21.98
2022-08-07T13:28:11.704Z,22.55
2022-08-07T13:30:07.408Z,23.05
2022-08-07T13:34:14.796Z,21.82
2022-08-07T13:36:00.528Z,24.43
2022-08-07T13:38:31.402Z,23.75
2022-08-07T13:41:02.098Z,22.58
2022-08-07T13:43:12.108Z,22.13
2022-08-07T13:46:07.891Z,21.36
2022-08-07T13:48:05.810Z,23.07
2022-08-07T13:50:34.181Z,21.28
2022-08-07T13:52:39.509Z,22.39
2022-08-07T13:54:49.265Z,21.35
2022-08-07T13:56:59.896Z,20.68
2022-08-07T13:59:05.539Z,21.49
2022-08-07T14:01:20.393Z,21.42
2022-08-07T14:03:30.101Z,20.78
2022-08-07T14:06:01.174Z,21.87
2022-08-07T14:08:07.203Z,20.15
2022-08-07T14:10:20.486Z,20.30
2022-08-07T14:12:49.430Z,21.64
2022-08-07T14:15:05.698Z,21.44
2022-08-07T14:17:32.296Z,21.58
2022-08-07T14:20:43.048Z,20.61
2022-08-07T14:22:41.326Z,21.07
2022-08-07T14:24:42.552Z,21.33
2022-08-07T14:28:09.189Z,21.55
2022-08-07T14:30:06.699Z,23.15
2022-08-07T14:31:57.901Z,21.49
2022-08-07T14:34:03.190Z,21.03
2022-08-07T14:36:11.685Z,20.73
2022-08-07T14:38:30.784Z,21.98
2022-08-07T14:40:35.958Z,22.85
2022-08-07T14:43:01.295Z,23.23
2022-08-07T14:45:21.706Z,23.93
2022-08-07T14:47:27.044Z,23.04
2022-08-07T14:49:57.307Z,22.95
2022-08-07T14:52:04.770Z,22.99
2022-08-07T14:56:43.703Z,22.92
2022-08-07T14:58:55.080Z,23.71
2022-08-07T15:01:00.374Z,23.89
2022-08-07T15:03:52.628Z,23.35
2022-08-07T15:08:14.233Z,24.51
2022-08-07T15:10:26.509Z,24.14
2022-08-07T15:12:36.867Z,23.11
2022-08-07T15:14:56.289Z,23.95
2022-08-07T15:17:13.882Z,24.33
2022-08-07T15:25:14.054Z,24.43
2022-08-07T15:26:46.949Z,26.03
2022-08-07T15:30:03.609Z,27.69
2022-08-07T15:32:02.074Z,28.85
2022-08-07T15:33:47.827Z,29.43
2022-08-07T15:38:30.991Z,31.07
2022-08-07T15:40:37.033Z,31.49
2022-08-07T15:42:47.609Z,32.65
2022-08-07T15:44:52.470Z,32.57
2022-08-07T15:50:04.469Z,31.91
2022-08-07T15:54:02.343Z,30.75
2022-08-07T15:56:13.362Z,32.05
2022-08-07T15:58:21.022Z,33.33
2022-08-07T16:00:33.598Z,32.88
2022-08-07T16:02:45.790Z,31.12
2022-08-07T16:04:58.008Z,34.91
2022-08-07T16:07:04.586Z,33.65
2022-08-07T16:09:41.960Z,33.25
2022-08-07T16:12:12.601Z,32.01
2022-08-07T16:14:41.062Z,34.38
2022-08-07T16:17:02.854Z,34.08
2022-08-07T16:19:42.580Z,31.34
2022-08-07T16:22:08.900Z,33.54
2022-08-07T16:24:55.643Z,33.48
2022-08-07T16:27:21.381Z,30.89
2022-08-07T16:30:10.722Z,33.67
2022-08-07T16:32:32.888Z,32.51
2022-08-07T16:34:48.127Z,32.66
2022-08-07T16:38:04.655Z,32.82
2022-08-07T16:40:28.081Z,36.30
2022-08-07T16:43:03.328Z,36.41
2022-08-07T16:46:34.638Z,37.26
2022-08-07T16:49:04.307Z,37.52
2022-08-07T16:51:53.990Z,35.30
2022-08-07T16:54:11.476Z,37.98
2022-08-07T16:56:56.246Z,38.60
2022-08-07T16:59:46.971Z,35.75
2022-08-07T17:01:58.723Z,39.26
2022-08-07T17:04:10.280Z,36.50
2022-08-07T17:06:44.763Z,38.48
2022-08-07T17:09:14.097Z,36.18
2022-08-07T17:12:04.071Z,38.64
2022-08-07T17:14:19.027Z,38.24
2022-08-07T17:16:29.440Z,37.16
2022-08-07T17:18:52.488Z,33.74
2022-08-07T17:20:56.496Z,35.13
2022-08-07T17:23:16.976Z,36.90
2022-08-07T17:25:47.811Z,36.33
2022-08-07T17:27:55.940Z,36.12
2022-08-07T17:30:16.238Z,38.00
2022-08-07T17:32:52.394Z,39.17
2022-08-07T17:35:49.874Z,37.07
2022-08-07T17:38:11.379Z,37.42
2022-08-07T17:40:19.133Z,35.20
2022-08-07T17:42:59.076Z,34.46
2022-08-07T17:45:14.891Z,35.52
2022-08-07T17:47:42.765Z,34.75
2022-08-07T17:49:58.537Z,37.72
2022-08-07T17:52:13.999Z,37.59
2022-08-07T17:54:39.669Z,38.26
2022-08-07T17:57:18.684Z,35.47
2022-08-07T17:59:24.801Z,36.91
2022-08-07T18:02:16.832Z,38.11
2022-08-07T18:04:44.885Z,37.19
2022-08-07T18:06:57.934Z,38.00
2022-08-07T18:10:04.968Z,36.74
2022-08-07T18:12:19.375Z,36.61
2022-08-07T18:14:31.616Z,36.63
2022-08-07T18:16:57.406Z,36.86
2022-08-07T18:21:04.142Z,38.11
2022-08-07T18:22:05.375Z,37.72
2022-08-07T18:24:34.311Z,38.40
2022-08-07T18:26:40.898Z,38.24
2022-08-07T18:30:07.390Z,38.98
2022-08-07T18:31:50.294Z,38.50
2022-08-07T18:34:05.821Z,39.44
2022-08-07T18:38:53.736Z,39.55
2022-08-07T18:40:08.133Z,39.16
2022-08-07T18:42:43.758Z,39.15
2022-08-07T18:45:44.736Z,40.43
2022-08-07T18:47:44.976Z,39.93
2022-08-07T18:50:39.647Z,40.71
2022-08-07T18:53:22.065Z,39.06
2022-08-07T18:55:55.894Z,40.65
2022-08-07T18:58:15.115Z,38.75
2022-08-07T19:00:34.214Z,39.84
2022-08-07T19:02:59.685Z,40.96
2022-08-07T19:05:09.752Z,40.59
2022-08-07T19:07:34.212Z,39.30
2022-08-07T19:09:57.677Z,40.73
2022-08-07T19:12:20.320Z,40.45
2022-08-07T19:14:41.106Z,40.91
2022-08-07T19:17:06.089Z,40.07
2022-08-07T19:19:37.933Z,40.54
2022-08-07T19:22:05.179Z,40.63
2022-08-07T19:24:30.887Z,40.17
2022-08-07T19:28:28.677Z,39.63
2022-08-07T19:31:03.675Z,40.42
2022-08-07T19:32:10.324Z,40.45
2022-08-07T19:34:03.167Z,40.06
2022-08-07T19:36:08.661Z,40.23
2022-08-07T19:38:17.152Z,41.91
2022-08-07T19:40:30.794Z,41.74
2022-08-07T19:42:42.757Z,41.94
2022-08-07T19:44:46.724Z,41.07
2022-08-07T19:46:58.042Z,41.52
2022-08-07T19:49:06.279Z,41.97
2022-08-07T19:51:19.896Z,41.31
2022-08-07T19:54:33.486Z,42.08
2022-08-07T19:55:57.563Z,42.23
2022-08-07T19:58:13.536Z,41.95
2022-08-07T20:00:29.166Z,41.98
2022-08-07T20:02:38.976Z,42.00
2022-08-07T20:04:45.202Z,41.92
2022-08-07T20:06:55.244Z,42.00
2022-08-07T20:09:01.952Z,41.57
2022-08-07T20:11:10.876Z,41.89
2022-08-07T20:13:23.634Z,41.67
2022-08-07T20:15:32.988Z,42.39
2022-08-07T20:17:40.938Z,42.11
2022-08-07T20:19:58.553Z,42.35
2022-08-07T20:22:02.597Z,42.56
2022-08-07T20:24:14.859Z,43.66
2022-08-07T20:26:32.049Z,43.17
2022-08-07T20:28:44.655Z,43.61
2022-08-07T20:30:49.814Z,42.78
2022-08-07T20:32:55.950Z,43.95
2022-08-07T20:35:07.861Z,44.28
2022-08-07T20:37:12.494Z,45.33
2022-08-07T20:39:31.174Z,45.27
2022-08-07T20:41:53.021Z,45.61
2022-08-07T20:43:58.193Z,45.64
2022-08-07T20:46:25.795Z,44.56
2022-08-07T20:48:30.018Z,44.93
2022-08-07T20:50:34.517Z,44.36
2022-08-07T20:52:51.931Z,43.97
2022-08-07T20:54:56.173Z,43.33
2022-08-07T20:57:08.352Z,44.27
2022-08-07T21:00:05.226Z,44.01
2022-08-07T21:01:54.762Z,44.20
2022-08-07T21:04:21.685Z,43.48
2022-08-07T21:06:31.363Z,44.16
2022-08-07T21:08:41.116Z,43.86
2022-08-07T21:10:45.117Z,43.83
2022-08-07T21:12:51.466Z,43.99
2022-08-07T21:14:58.689Z,43.53
2022-08-07T21:18:00.820Z,43.65
2022-08-07T21:19:32.362Z,43.75
2022-08-07T21:21:57.538Z,44.12
2022-08-07T21:24:07.560Z,43.61
2022-08-07T21:26:22.017Z,43.76
2022-08-07T21:28:48.870Z,43.75
2022-08-07T21:30:56.545Z,44.15
2022-08-07T21:33:22.413Z,43.50
2022-08-07T21:36:04.216Z,44.21
2022-08-07T21:38:55.331Z,44.22
2022-08-07T21:41:10.099Z,43.71
2022-08-07T21:43:47.306Z,43.73
2022-08-07T21:46:32.440Z,44.80
2022-08-07T21:49:01.986Z,44.01
2022-08-07T21:51:25.022Z,43.87
2022-08-07T21:53:46.344Z,43.63
2022-08-07T21:56:07.088Z,43.70
2022-08-07T21:58:45.772Z,42.75
2022-08-07T22:00:54.342Z,43.11
2022-08-07T22:03:30.990Z,42.46
2022-08-07T22:05:55.812Z,42.51
2022-08-07T22:08:01.415Z,43.03
2022-08-07T22:10:07.306Z,42.54
2022-08-07T22:12:27.240Z,42.40
2022-08-07T22:14:59.384Z,42.24
2022-08-07T22:17:05.946Z,41.98
2022-08-07T22:19:19.968Z,42.33
2022-08-07T22:22:04.911Z,42.33
2022-08-07T22:24:01.753Z,42.37
2022-08-07T22:26:34.326Z,42.58
2022-08-07T22:28:59.447Z,42.93
2022-08-07T22:31:45.104Z,42.65
2022-08-07T22:33:57.472Z,42.67
2022-08-07T22:36:11.822Z,42.64
2022-08-07T22:38:31.943Z,42.51
2022-08-07T22:41:10.833Z,42.45
2022-08-07T22:43:18.238Z,42.48
2022-08-07T22:46:40.585Z,42.62
2022-08-07T22:48:54.828Z,42.54
2022-08-07T22:51:06.622Z,42.75
2022-08-07T22:53:17.853Z,42.96
2022-08-07T22:55:52.357Z,43.19
2022-08-07T22:58:20.037Z,43.43
2022-08-07T23:00:49.865Z,43.49
2022-08-07T23:03:28.357Z,43.59
2022-08-07T23:06:07.613Z,43.63
2022-08-07T23:08:24.382Z,43.78
2022-08-07T23:10:42.160Z,43.81
2022-08-07T23:13:16.797Z,44.07
2022-08-07T23:16:05.401Z,43.89
2022-08-07T23:18:03.686Z,45.21
2022-08-07T23:20:40.314Z,46.73
2022-08-07T23:24:06.888Z,46.94
2022-08-07T23:25:48.922Z,47.62
2022-08-07T23:28:22.341Z,48.29
2022-08-07T23:31:11.610Z,48.58
2022-08-07T23:34:19.850Z,47.96
2022-08-07T23:36:34.398Z,48.06
2022-08-07T23:38:42.916Z,47.78
2022-08-07T23:40:55.637Z,47.93
2022-08-07T23:43:17.497Z,48.92
2022-08-07T23:46:03.302Z,49.43
2022-08-07T23:48:28.769Z,49.22
2022-08-07T23:53:05.524Z,49.69
2022-08-07T23:53:51.075Z,49.83
2022-08-07T23:56:14.765Z,49.34
2022-08-07T23:59:10.652Z,49.45
